sensor_id;sensor_type;location;lat;lon;timestamp;P1;durP1;ratioP1;P2;durP2;ratioP2
23282;SDS011;11810;51.178;3.878;2023-01-25T00:02:24;130.93;;;65.95;;
23282;SDS011;11810;51.178;3.878;2023-01-25T00:04:51;131.23;;;66.00;;
23282;SDS011;11810;51.178;3.878;2023-01-25T00:07:17;133.40;;;66.35;;
23282;SDS011;11810;51.178;3.878;2023-01-25T00:09:43;131.85;;;66.70;;
23282;SDS011;11810;51.178;3.878;2023-01-25T00:12:09;132.98;;;68.47;;
23282;SDS011;11810;51.178;3.878;2023-01-25T00:16:29;128.15;;;64.82;;
23282;SDS011;11810;51.178;3.878;2023-01-25T00:18:55;132.30;;;66.15;;
23282;SDS011;11810;51.178;3.878;2023-01-25T00:21:23;125.20;;;64.45;;
23282;SDS011;11810;51.178;3.878;2023-01-25T00:23:49;131.07;;;66.63;;
23282;SDS011;11810;51.178;3.878;2023-01-25T00:26:15;129.27;;;64.97;;
23282;SDS011;11810;51.178;3.878;2023-01-25T00:28:42;126.80;;;64.30;;
23282;SDS011;11810;51.178;3.878;2023-01-25T00:31:08;128.43;;;65.43;;
23282;SDS011;11810;51.178;3.878;2023-01-25T00:36:49;133.07;;;66.75;;
23282;SDS011;11810;51.178;3.878;2023-01-25T00:39:16;130.18;;;66.75;;
23282;SDS011;11810;51.178;3.878;2023-01-25T00:41:43;126.90;;;64.72;;
23282;SDS011;11810;51.178;3.878;2023-01-25T00:44:09;130.15;;;67.63;;
23282;SDS011;11810;51.178;3.878;2023-01-25T00:46:35;130.85;;;66.90;;
23282;SDS011;11810;51.178;3.878;2023-01-25T00:49:01;132.38;;;67.50;;
23282;SDS011;11810;51.178;3.878;2023-01-25T00:51:27;131.23;;;66.30;;
23282;SDS011;11810;51.178;3.878;2023-01-25T00:53:53;136.90;;;67.78;;
23282;SDS011;11810;51.178;3.878;2023-01-25T00:57:18;128.75;;;66.50;;
23282;SDS011;11810;51.178;3.878;2023-01-25T00:59:44;131.88;;;67.60;;
23282;SDS011;11810;51.178;3.878;2023-01-25T01:02:11;131.82;;;65.63;;
23282;SDS011;11810;51.178;3.878;2023-01-25T01:04:37;137.65;;;68.38;;
23282;SDS011;11810;51.178;3.878;2023-01-25T01:07:03;129.98;;;67.28;;
23282;SDS011;11810;51.178;3.878;2023-01-25T01:09:29;132.23;;;65.78;;
23282;SDS011;11810;51.178;3.878;2023-01-25T01:11:56;128.80;;;66.05;;
23282;SDS011;11810;51.178;3.878;2023-01-25T01:14:22;131.55;;;67.70;;
23282;SDS011;11810;51.178;3.878;2023-01-25T01:16:48;135.55;;;67.60;;
23282;SDS011;11810;51.178;3.878;2023-01-25T01:19:14;129.20;;;66.18;;
23282;SDS011;11810;51.178;3.878;2023-01-25T01:21:40;133.65;;;66.68;;
23282;SDS011;11810;51.178;3.878;2023-01-25T01:24:07;132.48;;;65.82;;
23282;SDS011;11810;51.178;3.878;2023-01-25T01:26:34;134.70;;;67.22;;
23282;SDS011;11810;51.178;3.878;2023-01-25T01:29:00;138.40;;;69.43;;
23282;SDS011;11810;51.178;3.878;2023-01-25T01:31:26;138.60;;;67.15;;
23282;SDS011;11810;51.178;3.878;2023-01-25T01:33:53;136.35;;;66.20;;
23282;SDS011;11810;51.178;3.878;2023-01-25T01:36:21;133.43;;;66.93;;
23282;SDS011;11810;51.178;3.878;2023-01-25T01:38:49;130.93;;;66.65;;
23282;SDS011;11810;51.178;3.878;2023-01-25T01:41:15;133.50;;;67.32;;
23282;SDS011;11810;51.178;3.878;2023-01-25T01:43:42;131.57;;;66.57;;
23282;SDS011;11810;51.178;3.878;2023-01-25T01:48:38;138.98;;;65.03;;
23282;SDS011;11810;51.178;3.878;2023-01-25T01:53:37;136.77;;;66.95;;
23282;SDS011;11810;51.178;3.878;2023-01-25T01:56:08;136.68;;;67.95;;
23282;SDS011;11810;51.178;3.878;2023-01-25T01:58:38;134.07;;;66.38;;
23282;SDS011;11810;51.178;3.878;2023-01-25T02:01:06;144.00;;;68.90;;
23282;SDS011;11810;51.178;3.878;2023-01-25T02:03:31;135.55;;;66.07;;
23282;SDS011;11810;51.178;3.878;2023-01-25T02:06:03;135.38;;;67.25;;
23282;SDS011;11810;51.178;3.878;2023-01-25T02:08:49;131.35;;;65.95;;
23282;SDS011;11810;51.178;3.878;2023-01-25T02:11:17;137.10;;;67.88;;
23282;SDS011;11810;51.178;3.878;2023-01-25T02:13:44;140.02;;;68.03;;
23282;SDS011;11810;51.178;3.878;2023-01-25T02:16:13;142.52;;;69.03;;
23282;SDS011;11810;51.178;3.878;2023-01-25T02:18:41;135.93;;;66.28;;
23282;SDS011;11810;51.178;3.878;2023-01-25T02:21:07;134.63;;;65.88;;
23282;SDS011;11810;51.178;3.878;2023-01-25T02:23:36;142.35;;;67.93;;
23282;SDS011;11810;51.178;3.878;2023-01-25T02:28:31;136.20;;;67.10;;
23282;SDS011;11810;51.178;3.878;2023-01-25T02:32:48;130.68;;;65.75;;
23282;SDS011;11810;51.178;3.878;2023-01-25T02:35:24;132.63;;;64.88;;
23282;SDS011;11810;51.178;3.878;2023-01-25T02:38:02;132.93;;;63.90;;
23282;SDS011;11810;51.178;3.878;2023-01-25T02:40:29;132.23;;;65.43;;
23282;SDS011;11810;51.178;3.878;2023-01-25T02:42:57;132.10;;;66.00;;
23282;SDS011;11810;51.178;3.878;2023-01-25T02:45:24;138.05;;;66.57;;
23282;SDS011;11810;51.178;3.878;2023-01-25T02:47:53;129.07;;;63.28;;
23282;SDS011;11810;51.178;3.878;2023-01-25T02:50:19;136.00;;;64.32;;
23282;SDS011;11810;51.178;3.878;2023-01-25T02:52:45;142.30;;;68.35;;
23282;SDS011;11810;51.178;3.878;2023-01-25T02:55:11;140.88;;;68.28;;
23282;SDS011;11810;51.178;3.878;2023-01-25T02:58:32;137.57;;;65.45;;
23282;SDS011;11810;51.178;3.878;2023-01-25T03:00:58;141.93;;;67.82;;
23282;SDS011;11810;51.178;3.878;2023-01-25T03:03:24;136.13;;;67.25;;
23282;SDS011;11810;51.178;3.878;2023-01-25T03:05:50;135.35;;;64.93;;
23282;SDS011;11810;51.178;3.878;2023-01-25T03:08:16;141.02;;;67.53;;
23282;SDS011;11810;51.178;3.878;2023-01-25T03:10:42;139.70;;;67.00;;
23282;SDS011;11810;51.178;3.878;2023-01-25T03:13:08;139.85;;;68.35;;
23282;SDS011;11810;51.178;3.878;2023-01-25T03:15:35;142.98;;;67.95;;
23282;SDS011;11810;51.178;3.878;2023-01-25T03:18:01;143.30;;;67.70;;
23282;SDS011;11810;51.178;3.878;2023-01-25T03:20:27;139.00;;;67.90;;
23282;SDS011;11810;51.178;3.878;2023-01-25T03:22:53;138.77;;;66.50;;
23282;SDS011;11810;51.178;3.878;2023-01-25T03:25:19;133.18;;;68.00;;
23282;SDS011;11810;51.178;3.878;2023-01-25T03:27:45;137.25;;;66.13;;
23282;SDS011;11810;51.178;3.878;2023-01-25T03:30:11;137.77;;;66.93;;
23282;SDS011;11810;51.178;3.878;2023-01-25T03:32:37;140.65;;;67.97;;
23282;SDS011;11810;51.178;3.878;2023-01-25T03:35:03;137.40;;;66.80;;
23282;SDS011;11810;51.178;3.878;2023-01-25T03:39:37;139.05;;;65.93;;
23282;SDS011;11810;51.178;3.878;2023-01-25T03:42:03;140.18;;;68.78;;
23282;SDS011;11810;51.178;3.878;2023-01-25T03:44:29;137.43;;;66.03;;
23282;SDS011;11810;51.178;3.878;2023-01-25T03:46:55;140.40;;;65.25;;
23282;SDS011;11810;51.178;3.878;2023-01-25T03:49:21;141.07;;;68.43;;
23282;SDS011;11810;51.178;3.878;2023-01-25T03:51:47;130.68;;;63.13;;
23282;SDS011;11810;51.178;3.878;2023-01-25T03:54:13;132.93;;;65.00;;
23282;SDS011;11810;51.178;3.878;2023-01-25T03:58:39;140.00;;;66.45;;
23282;SDS011;11810;51.178;3.878;2023-01-25T04:01:05;141.52;;;67.85;;
23282;SDS011;11810;51.178;3.878;2023-01-25T04:03:32;138.38;;;66.80;;
23282;SDS011;11810;51.178;3.878;2023-01-25T04:05:59;137.52;;;66.22;;
23282;SDS011;11810;51.178;3.878;2023-01-25T04:08:25;139.15;;;64.38;;
23282;SDS011;11810;51.178;3.878;2023-01-25T04:10:52;141.77;;;66.15;;
23282;SDS011;11810;51.178;3.878;2023-01-25T04:14:41;133.30;;;63.72;;
23282;SDS011;11810;51.178;3.878;2023-01-25T04:17:07;133.82;;;64.90;;
23282;SDS011;11810;51.178;3.878;2023-01-25T04:19:34;134.32;;;65.50;;
23282;SDS011;11810;51.178;3.878;2023-01-25T04:22:00;140.50;;;67.68;;
23282;SDS011;11810;51.178;3.878;2023-01-25T04:24:26;143.13;;;66.38;;
23282;SDS011;11810;51.178;3.878;2023-01-25T04:26:52;143.32;;;67.18;;
23282;SDS011;11810;51.178;3.878;2023-01-25T04:30:43;146.45;;;66.82;;
23282;SDS011;11810;51.178;3.878;2023-01-25T04:33:09;144.50;;;66.55;;
23282;SDS011;11810;51.178;3.878;2023-01-25T04:37:44;144.38;;;66.10;;
23282;SDS011;11810;51.178;3.878;2023-01-25T04:40:20;137.38;;;65.10;;
23282;SDS011;11810;51.178;3.878;2023-01-25T04:42:46;138.65;;;66.25;;
23282;SDS011;11810;51.178;3.878;2023-01-25T04:45:12;145.95;;;67.45;;
23282;SDS011;11810;51.178;3.878;2023-01-25T04:47:38;148.02;;;67.03;;
23282;SDS011;11810;51.178;3.878;2023-01-25T04:50:04;141.18;;;64.75;;
23282;SDS011;11810;51.178;3.878;2023-01-25T04:52:30;138.07;;;66.18;;
23282;SDS011;11810;51.178;3.878;2023-01-25T04:54:56;144.20;;;67.97;;
23282;SDS011;11810;51.178;3.878;2023-01-25T05:01:05;142.73;;;63.30;;
23282;SDS011;11810;51.178;3.878;2023-01-25T05:03:31;144.30;;;65.90;;
23282;SDS011;11810;51.178;3.878;2023-01-25T05:07:49;140.98;;;64.72;;
23282;SDS011;11810;51.178;3.878;2023-01-25T05:10:15;135.85;;;63.45;;
23282;SDS011;11810;51.178;3.878;2023-01-25T05:12:41;138.98;;;65.63;;
23282;SDS011;11810;51.178;3.878;2023-01-25T05:15:50;143.60;;;63.72;;
23282;SDS011;11810;51.178;3.878;2023-01-25T05:18:16;139.50;;;66.43;;
23282;SDS011;11810;51.178;3.878;2023-01-25T05:20:42;142.20;;;68.40;;
23282;SDS011;11810;51.178;3.878;2023-01-25T05:23:08;144.00;;;66.75;;
23282;SDS011;11810;51.178;3.878;2023-01-25T05:25:52;146.18;;;67.15;;
23282;SDS011;11810;51.178;3.878;2023-01-25T05:28:37;141.05;;;65.78;;
23282;SDS011;11810;51.178;3.878;2023-01-25T05:31:03;136.85;;;63.92;;
23282;SDS011;11810;51.178;3.878;2023-01-25T05:33:29;140.15;;;66.32;;
23282;SDS011;11810;51.178;3.878;2023-01-25T05:35:55;142.95;;;64.00;;
23282;SDS011;11810;51.178;3.878;2023-01-25T05:38:23;143.23;;;67.13;;
23282;SDS011;11810;51.178;3.878;2023-01-25T05:40:49;139.80;;;63.65;;
23282;SDS011;11810;51.178;3.878;2023-01-25T05:43:15;142.45;;;64.57;;
23282;SDS011;11810;51.178;3.878;2023-01-25T05:46:41;144.55;;;65.80;;
23282;SDS011;11810;51.178;3.878;2023-01-25T05:49:08;143.57;;;64.43;;
23282;SDS011;11810;51.178;3.878;2023-01-25T05:52:57;142.75;;;65.75;;
23282;SDS011;11810;51.178;3.878;2023-01-25T05:55:39;145.35;;;66.03;;
23282;SDS011;11810;51.178;3.878;2023-01-25T05:58:05;140.07;;;66.30;;
23282;SDS011;11810;51.178;3.878;2023-01-25T06:02:27;140.88;;;64.10;;
23282;SDS011;11810;51.178;3.878;2023-01-25T06:04:53;145.15;;;65.82;;
23282;SDS011;11810;51.178;3.878;2023-01-25T06:07:19;147.45;;;68.22;;
23282;SDS011;11810;51.178;3.878;2023-01-25T06:09:45;149.38;;;68.18;;
23282;SDS011;11810;51.178;3.878;2023-01-25T06:12:11;154.05;;;71.82;;
23282;SDS011;11810;51.178;3.878;2023-01-25T06:14:37;153.02;;;69.10;;
23282;SDS011;11810;51.178;3.878;2023-01-25T06:17:02;151.70;;;69.68;;
23282;SDS011;11810;51.178;3.878;2023-01-25T06:19:28;166.20;;;75.30;;
23282;SDS011;11810;51.178;3.878;2023-01-25T06:26:05;155.50;;;70.80;;
23282;SDS011;11810;51.178;3.878;2023-01-25T06:28:35;158.13;;;70.70;;
23282;SDS011;11810;51.178;3.878;2023-01-25T06:31:06;155.73;;;71.68;;
23282;SDS011;11810;51.178;3.878;2023-01-25T06:33:50;161.20;;;72.80;;
23282;SDS011;11810;51.178;3.878;2023-01-25T06:37:03;163.50;;;73.70;;
23282;SDS011;11810;51.178;3.878;2023-01-25T06:39:29;164.85;;;73.22;;
23282;SDS011;11810;51.178;3.878;2023-01-25T06:41:54;160.73;;;72.85;;
23282;SDS011;11810;51.178;3.878;2023-01-25T06:44:20;170.88;;;74.82;;
23282;SDS011;11810;51.178;3.878;2023-01-25T06:46:46;170.80;;;76.38;;
23282;SDS011;11810;51.178;3.878;2023-01-25T06:49:12;167.52;;;76.15;;
23282;SDS011;11810;51.178;3.878;2023-01-25T06:51:38;172.60;;;76.38;;
23282;SDS011;11810;51.178;3.878;2023-01-25T06:54:04;163.93;;;73.00;;
23282;SDS011;11810;51.178;3.878;2023-01-25T06:56:30;168.50;;;75.13;;
23282;SDS011;11810;51.178;3.878;2023-01-25T06:58:57;163.82;;;75.13;;
23282;SDS011;11810;51.178;3.878;2023-01-25T07:03:07;167.20;;;72.15;;
23282;SDS011;11810;51.178;3.878;2023-01-25T07:05:33;155.45;;;71.70;;
23282;SDS011;11810;51.178;3.878;2023-01-25T07:07:58;160.93;;;72.28;;
23282;SDS011;11810;51.178;3.878;2023-01-25T07:10:24;152.25;;;71.53;;
23282;SDS011;11810;51.178;3.878;2023-01-25T07:12:50;162.07;;;75.05;;
23282;SDS011;11810;51.178;3.878;2023-01-25T07:15:16;160.15;;;71.45;;
23282;SDS011;11810;51.178;3.878;2023-01-25T07:17:42;165.45;;;72.15;;
23282;SDS011;11810;51.178;3.878;2023-01-25T07:20:08;160.93;;;74.47;;
23282;SDS011;11810;51.178;3.878;2023-01-25T07:22:34;162.48;;;75.30;;
23282;SDS011;11810;51.178;3.878;2023-01-25T07:25:00;161.82;;;73.30;;
23282;SDS011;11810;51.178;3.878;2023-01-25T07:27:26;165.98;;;75.88;;
23282;SDS011;11810;51.178;3.878;2023-01-25T07:29:52;163.27;;;74.22;;
23282;SDS011;11810;51.178;3.878;2023-01-25T07:32:18;171.32;;;77.80;;
23282;SDS011;11810;51.178;3.878;2023-01-25T07:34:44;171.52;;;78.07;;
23282;SDS011;11810;51.178;3.878;2023-01-25T07:37:09;178.02;;;81.60;;
23282;SDS011;11810;51.178;3.878;2023-01-25T07:39:35;173.07;;;80.40;;
23282;SDS011;11810;51.178;3.878;2023-01-25T07:42:01;172.02;;;77.90;;
23282;SDS011;11810;51.178;3.878;2023-01-25T07:44:27;176.38;;;79.10;;
23282;SDS011;11810;51.178;3.878;2023-01-25T07:46:53;172.57;;;80.90;;
23282;SDS011;11810;51.178;3.878;2023-01-25T07:49:19;175.02;;;79.70;;
23282;SDS011;11810;51.178;3.878;2023-01-25T07:51:45;175.98;;;80.43;;
23282;SDS011;11810;51.178;3.878;2023-01-25T07:54:11;173.15;;;78.47;;
23282;SDS011;11810;51.178;3.878;2023-01-25T07:56:37;170.50;;;76.95;;
23282;SDS011;11810;51.178;3.878;2023-01-25T07:59:04;165.07;;;75.88;;
23282;SDS011;11810;51.178;3.878;2023-01-25T08:01:34;176.43;;;75.88;;
23282;SDS011;11810;51.178;3.878;2023-01-25T08:04:01;167.15;;;76.70;;
23282;SDS011;11810;51.178;3.878;2023-01-25T08:06:29;166.68;;;76.18;;
23282;SDS011;11810;51.178;3.878;2023-01-25T08:09:00;163.88;;;73.93;;
23282;SDS011;11810;51.178;3.878;2023-01-25T08:11:32;163.13;;;75.28;;
23282;SDS011;11810;51.178;3.878;2023-01-25T08:16:02;161.23;;;71.80;;
23282;SDS011;11810;51.178;3.878;2023-01-25T08:18:28;156.70;;;69.82;;
23282;SDS011;11810;51.178;3.878;2023-01-25T08:21:19;157.82;;;71.95;;
23282;SDS011;11810;51.178;3.878;2023-01-25T08:23:48;151.23;;;67.38;;
23282;SDS011;11810;51.178;3.878;2023-01-25T08:26:14;162.23;;;73.22;;
23282;SDS011;11810;51.178;3.878;2023-01-25T08:33:01;166.38;;;74.18;;
23282;SDS011;11810;51.178;3.878;2023-01-25T08:35:27;164.02;;;71.78;;
23282;SDS011;11810;51.178;3.878;2023-01-25T08:37:52;167.07;;;71.50;;
23282;SDS011;11810;51.178;3.878;2023-01-25T08:40:18;155.15;;;68.53;;
23282;SDS011;11810;51.178;3.878;2023-01-25T08:42:44;158.52;;;69.20;;
23282;SDS011;11810;51.178;3.878;2023-01-25T08:45:10;165.18;;;73.28;;
23282;SDS011;11810;51.178;3.878;2023-01-25T08:47:36;160.38;;;74.18;;
23282;SDS011;11810;51.178;3.878;2023-01-25T08:50:02;163.75;;;71.80;;
23282;SDS011;11810;51.178;3.878;2023-01-25T08:52:28;154.45;;;69.03;;
23282;SDS011;11810;51.178;3.878;2023-01-25T08:54:54;157.65;;;71.50;;
23282;SDS011;11810;51.178;3.878;2023-01-25T08:57:20;155.43;;;71.30;;
23282;SDS011;11810;51.178;3.878;2023-01-25T08:59:46;166.98;;;72.82;;
23282;SDS011;11810;51.178;3.878;2023-01-25T09:02:12;164.75;;;71.38;;
23282;SDS011;11810;51.178;3.878;2023-01-25T09:04:38;158.18;;;72.75;;
23282;SDS011;11810;51.178;3.878;2023-01-25T09:07:04;164.52;;;70.00;;
23282;SDS011;11810;51.178;3.878;2023-01-25T09:09:30;164.45;;;70.80;;
23282;SDS011;11810;51.178;3.878;2023-01-25T09:11:56;158.82;;;69.43;;
23282;SDS011;11810;51.178;3.878;2023-01-25T09:14:22;163.45;;;70.72;;
23282;SDS011;11810;51.178;3.878;2023-01-25T09:16:48;166.43;;;71.97;;
23282;SDS011;11810;51.178;3.878;2023-01-25T09:19:27;165.95;;;72.13;;
23282;SDS011;11810;51.178;3.878;2023-01-25T09:21:53;170.82;;;74.45;;
23282;SDS011;11810;51.178;3.878;2023-01-25T09:24:19;165.73;;;75.38;;
23282;SDS011;11810;51.178;3.878;2023-01-25T09:26:45;175.65;;;71.90;;
23282;SDS011;11810;51.178;3.878;2023-01-25T09:29:11;160.73;;;71.18;;
23282;SDS011;11810;51.178;3.878;2023-01-25T09:31:38;162.48;;;71.88;;
23282;SDS011;11810;51.178;3.878;2023-01-25T09:34:29;163.80;;;71.75;;
23282;SDS011;11810;51.178;3.878;2023-01-25T09:36:55;172.25;;;73.25;;
23282;SDS011;11810;51.178;3.878;2023-01-25T09:39:21;171.85;;;74.90;;
23282;SDS011;11810;51.178;3.878;2023-01-25T09:45:31;180.80;;;76.20;;
23282;SDS011;11810;51.178;3.878;2023-01-25T09:47:58;176.88;;;74.30;;
23282;SDS011;11810;51.178;3.878;2023-01-25T09:53:22;182.13;;;75.15;;
23282;SDS011;11810;51.178;3.878;2023-01-25T09:56:41;178.70;;;75.65;;
23282;SDS011;11810;51.178;3.878;2023-01-25T09:58:58;179.52;;;74.80;;
23282;SDS011;11810;51.178;3.878;2023-01-25T10:06:52;186.57;;;75.50;;
23282;SDS011;11810;51.178;3.878;2023-01-25T10:09:38;176.13;;;73.40;;
23282;SDS011;11810;51.178;3.878;2023-01-25T10:13:35;185.93;;;77.90;;
23282;SDS011;11810;51.178;3.878;2023-01-25T10:16:12;186.80;;;77.10;;
23282;SDS011;11810;51.178;3.878;2023-01-25T10:26:55;182.27;;;75.82;;
23282;SDS011;11810;51.178;3.878;2023-01-25T10:29:26;172.18;;;72.97;;
23282;SDS011;11810;51.178;3.878;2023-01-25T10:34:45;169.98;;;73.43;;
23282;SDS011;11810;51.178;3.878;2023-01-25T10:37:14;178.48;;;74.15;;
23282;SDS011;11810;51.178;3.878;2023-01-25T10:42:30;178.70;;;74.80;;
23282;SDS011;11810;51.178;3.878;2023-01-25T10:45:12;175.40;;;72.97;;
23282;SDS011;11810;51.178;3.878;2023-01-25T10:47:40;185.30;;;73.72;;
23282;SDS011;11810;51.178;3.878;2023-01-25T10:50:11;174.57;;;72.40;;
23282;SDS011;11810;51.178;3.878;2023-01-25T10:54:41;175.90;;;72.57;;
23282;SDS011;11810;51.178;3.878;2023-01-25T10:57:08;183.45;;;74.10;;
23282;SDS011;11810;51.178;3.878;2023-01-25T11:02:44;175.35;;;72.95;;
23282;SDS011;11810;51.178;3.878;2023-01-25T11:05:33;170.52;;;69.93;;
23282;SDS011;11810;51.178;3.878;2023-01-25T11:10:59;179.43;;;73.15;;
23282;SDS011;11810;51.178;3.878;2023-01-25T11:13:57;189.20;;;77.05;;
23282;SDS011;11810;51.178;3.878;2023-01-25T11:20:44;187.40;;;74.32;;
23282;SDS011;11810;51.178;3.878;2023-01-25T11:23:23;170.63;;;72.32;;
23282;SDS011;11810;51.178;3.878;2023-01-25T11:25:50;174.32;;;74.45;;
23282;SDS011;11810;51.178;3.878;2023-01-25T11:28:45;185.80;;;73.95;;
23282;SDS011;11810;51.178;3.878;2023-01-25T11:32:15;182.52;;;75.00;;
23282;SDS011;11810;51.178;3.878;2023-01-25T11:38:28;170.43;;;69.68;;
23282;SDS011;11810;51.178;3.878;2023-01-25T11:46:53;200.32;;;82.57;;
23282;SDS011;11810;51.178;3.878;2023-01-25T12:00:47;212.80;;;85.47;;
23282;SDS011;11810;51.178;3.878;2023-01-25T12:03:32;213.50;;;84.95;;
23282;SDS011;11810;51.178;3.878;2023-01-25T12:06:20;212.35;;;83.72;;
23282;SDS011;11810;51.178;3.878;2023-01-25T12:09:55;210.15;;;83.00;;
23282;SDS011;11810;51.178;3.878;2023-01-25T12:26:45;210.25;;;81.82;;
23282;SDS011;11810;51.178;3.878;2023-01-25T12:32:59;174.55;;;73.18;;
23282;SDS011;11810;51.178;3.878;2023-01-25T12:35:34;179.65;;;73.30;;
23282;SDS011;11810;51.178;3.878;2023-01-25T12:38:12;190.68;;;78.18;;
23282;SDS011;11810;51.178;3.878;2023-01-25T12:40:51;192.23;;;79.05;;
23282;SDS011;11810;51.178;3.878;2023-01-25T12:43:23;203.45;;;79.47;;
23282;SDS011;11810;51.178;3.878;2023-01-25T12:47:59;193.85;;;73.72;;
23282;SDS011;11810;51.178;3.878;2023-01-25T12:50:31;186.55;;;76.32;;
23282;SDS011;11810;51.178;3.878;2023-01-25T12:53:00;175.82;;;71.35;;
23282;SDS011;11810;51.178;3.878;2023-01-25T12:55:58;177.27;;;72.35;;
23282;SDS011;11810;51.178;3.878;2023-01-25T13:01:10;179.45;;;70.57;;
23282;SDS011;11810;51.178;3.878;2023-01-25T13:10:15;169.23;;;69.80;;
23282;SDS011;11810;51.178;3.878;2023-01-25T13:16:45;163.95;;;67.00;;
23282;SDS011;11810;51.178;3.878;2023-01-25T13:21:54;160.88;;;65.72;;
23282;SDS011;11810;51.178;3.878;2023-01-25T13:24:23;155.02;;;65.55;;
23282;SDS011;11810;51.178;3.878;2023-01-25T13:33:05;144.90;;;60.55;;
23282;SDS011;11810;51.178;3.878;2023-01-25T13:35:32;148.80;;;62.25;;
23282;SDS011;11810;51.178;3.878;2023-01-25T13:38:04;154.48;;;63.15;;
23282;SDS011;11810;51.178;3.878;2023-01-25T13:43:18;148.55;;;65.05;;
23282;SDS011;11810;51.178;3.878;2023-01-25T13:45:49;149.63;;;64.00;;
23282;SDS011;11810;51.178;3.878;2023-01-25T13:48:20;146.70;;;61.17;;
23282;SDS011;11810;51.178;3.878;2023-01-25T13:50:54;139.63;;;58.67;;
23282;SDS011;11810;51.178;3.878;2023-01-25T13:54:23;143.75;;;59.88;;
23282;SDS011;11810;51.178;3.878;2023-01-25T13:57:01;153.68;;;63.10;;
23282;SDS011;11810;51.178;3.878;2023-01-25T13:59:35;163.10;;;65.38;;
23282;SDS011;11810;51.178;3.878;2023-01-25T14:04:06;147.30;;;59.33;;
23282;SDS011;11810;51.178;3.878;2023-01-25T14:06:37;155.23;;;62.40;;
23282;SDS011;11810;51.178;3.878;2023-01-25T14:09:11;148.73;;;63.78;;
23282;SDS011;11810;51.178;3.878;2023-01-25T14:11:56;155.98;;;62.55;;
23282;SDS011;11810;51.178;3.878;2023-01-25T14:14:25;154.43;;;62.63;;
23282;SDS011;11810;51.178;3.878;2023-01-25T14:19:43;191.18;;;75.10;;
23282;SDS011;11810;51.178;3.878;2023-01-25T14:25:16;153.50;;;63.28;;
23282;SDS011;11810;51.178;3.878;2023-01-25T14:27:50;151.15;;;64.85;;
23282;SDS011;11810;51.178;3.878;2023-01-25T14:31:42;154.65;;;61.72;;
23282;SDS011;11810;51.178;3.878;2023-01-25T14:34:20;147.13;;;62.20;;
23282;SDS011;11810;51.178;3.878;2023-01-25T14:36:46;151.43;;;60.28;;
23282;SDS011;11810;51.178;3.878;2023-01-25T14:39:13;167.18;;;66.38;;
23282;SDS011;11810;51.178;3.878;2023-01-25T14:41:49;170.05;;;67.63;;
23282;SDS011;11810;51.178;3.878;2023-01-25T14:44:18;156.10;;;61.60;;
23282;SDS011;11810;51.178;3.878;2023-01-25T14:46:45;170.05;;;68.43;;
23282;SDS011;11810;51.178;3.878;2023-01-25T14:51:57;180.00;;;70.93;;
23282;SDS011;11810;51.178;3.878;2023-01-25T14:54:35;185.93;;;71.25;;
23282;SDS011;11810;51.178;3.878;2023-01-25T14:57:45;166.20;;;62.65;;
23282;SDS011;11810;51.178;3.878;2023-01-25T15:02:44;168.32;;;63.55;;
23282;SDS011;11810;51.178;3.878;2023-01-25T15:05:19;152.98;;;60.80;;
23282;SDS011;11810;51.178;3.878;2023-01-25T15:10:33;118.57;;;46.50;;
23282;SDS011;11810;51.178;3.878;2023-01-25T15:13:02;143.50;;;56.50;;
23282;SDS011;11810;51.178;3.878;2023-01-25T15:15:57;152.15;;;56.15;;
23282;SDS011;11810;51.178;3.878;2023-01-25T15:18:48;151.88;;;55.13;;
23282;SDS011;11810;51.178;3.878;2023-01-25T15:21:23;145.43;;;55.13;;
23282;SDS011;11810;51.178;3.878;2023-01-25T15:24:00;142.00;;;54.95;;
23282;SDS011;11810;51.178;3.878;2023-01-25T15:26:31;144.27;;;52.03;;
23282;SDS011;11810;51.178;3.878;2023-01-25T15:28:59;145.27;;;53.97;;
23282;SDS011;11810;51.178;3.878;2023-01-25T15:31:46;154.35;;;55.67;;
23282;SDS011;11810;51.178;3.878;2023-01-25T15:36:16;135.40;;;50.03;;
23282;SDS011;11810;51.178;3.878;2023-01-25T15:38:43;134.18;;;50.03;;
23282;SDS011;11810;51.178;3.878;2023-01-25T15:41:09;138.60;;;51.35;;
23282;SDS011;11810;51.178;3.878;2023-01-25T15:43:36;145.65;;;53.78;;
23282;SDS011;11810;51.178;3.878;2023-01-25T15:46:02;136.02;;;51.08;;
23282;SDS011;11810;51.178;3.878;2023-01-25T15:53:19;123.63;;;42.75;;
23282;SDS011;11810;51.178;3.878;2023-01-25T15:55:46;125.10;;;46.13;;
23282;SDS011;11810;51.178;3.878;2023-01-25T15:58:20;125.23;;;45.57;;
23282;SDS011;11810;51.178;3.878;2023-01-25T16:00:49;112.75;;;45.00;;
23282;SDS011;11810;51.178;3.878;2023-01-25T16:03:15;118.90;;;45.47;;
23282;SDS011;11810;51.178;3.878;2023-01-25T16:05:48;115.95;;;44.50;;
23282;SDS011;11810;51.178;3.878;2023-01-25T16:08:17;119.63;;;45.30;;
23282;SDS011;11810;51.178;3.878;2023-01-25T16:10:45;113.35;;;42.38;;
23282;SDS011;11810;51.178;3.878;2023-01-25T16:13:21;113.53;;;44.13;;
23282;SDS011;11810;51.178;3.878;2023-01-25T16:15:48;121.00;;;45.72;;
23282;SDS011;11810;51.178;3.878;2023-01-25T16:18:17;126.70;;;48.05;;
23282;SDS011;11810;51.178;3.878;2023-01-25T16:20:43;125.03;;;48.45;;
23282;SDS011;11810;51.178;3.878;2023-01-25T16:23:09;129.82;;;50.22;;
23282;SDS011;11810;51.178;3.878;2023-01-25T16:25:37;135.45;;;53.17;;
23282;SDS011;11810;51.178;3.878;2023-01-25T16:28:24;131.57;;;52.20;;
23282;SDS011;11810;51.178;3.878;2023-01-25T16:30:50;131.90;;;48.70;;
23282;SDS011;11810;51.178;3.878;2023-01-25T16:33:15;127.78;;;48.88;;
23282;SDS011;11810;51.178;3.878;2023-01-25T16:35:41;118.65;;;45.60;;
23282;SDS011;11810;51.178;3.878;2023-01-25T16:38:09;117.00;;;45.85;;
23282;SDS011;11810;51.178;3.878;2023-01-25T16:40:35;120.30;;;45.67;;
23282;SDS011;11810;51.178;3.878;2023-01-25T16:43:03;119.97;;;46.70;;
23282;SDS011;11810;51.178;3.878;2023-01-25T16:45:29;127.38;;;49.25;;
23282;SDS011;11810;51.178;3.878;2023-01-25T16:47:55;121.70;;;47.60;;
23282;SDS011;11810;51.178;3.878;2023-01-25T16:52:27;191.90;;;109.88;;
23282;SDS011;11810;51.178;3.878;2023-01-25T16:54:53;155.32;;;81.55;;
23282;SDS011;11810;51.178;3.878;2023-01-25T16:57:28;142.68;;;61.78;;
23282;SDS011;11810;51.178;3.878;2023-01-25T16:59:53;157.27;;;78.10;;
23282;SDS011;11810;51.178;3.878;2023-01-25T17:02:19;169.60;;;80.55;;
23282;SDS011;11810;51.178;3.878;2023-01-25T17:04:45;143.10;;;65.60;;
23282;SDS011;11810;51.178;3.878;2023-01-25T17:07:11;156.13;;;63.10;;
23282;SDS011;11810;51.178;3.878;2023-01-25T17:09:37;154.38;;;59.30;;
23282;SDS011;11810;51.178;3.878;2023-01-25T17:12:29;143.10;;;55.55;;
23282;SDS011;11810;51.178;3.878;2023-01-25T17:14:55;140.38;;;52.75;;
23282;SDS011;11810;51.178;3.878;2023-01-25T17:17:23;138.82;;;56.70;;
23282;SDS011;11810;51.178;3.878;2023-01-25T17:19:51;139.93;;;52.92;;
23282;SDS011;11810;51.178;3.878;2023-01-25T17:22:17;131.13;;;52.05;;
23282;SDS011;11810;51.178;3.878;2023-01-25T17:24:43;130.07;;;52.60;;